createdAt,value
2024-03-05T00:02:18.447Z,86.56
2024-03-05T00:04:45.328Z,87.42
2024-03-05T00:07:12.029Z,87.38
2024-03-05T00:09:38.637Z,87.64
2024-03-05T00:12:05.465Z,86.42
2024-03-05T00:14:32.478Z,87.32
2024-03-05T00:16:59.127Z,88.10
2024-03-05T00:19:28.600Z,87.33
2024-03-05T00:21:55.104Z,86.75
2024-03-05T00:24:21.691Z,88.34
2024-03-05T00:26:48.815Z,89.12
2024-03-05T00:29:17.117Z,88.93
2024-03-05T00:31:43.818Z,88.45
2024-03-05T00:34:10.354Z,89.02
2024-03-05T00:36:36.820Z,88.29
2024-03-05T00:39:04.470Z,88.64
2024-03-05T00:41:30.946Z,89.21
2024-03-05T00:43:57.875Z,88.70
2024-03-05T00:46:26.092Z,87.85
2024-03-05T00:48:52.970Z,88.42
2024-03-05T00:51:19.467Z,88.65
2024-03-05T00:53:45.986Z,88.42
2024-03-05T00:56:12.493Z,88.38
2024-03-05T00:58:39.059Z,88.28
2024-03-05T01:01:08.340Z,88.56
2024-03-05T01:03:34.943Z,87.47
2024-03-05T01:06:01.782Z,88.82
2024-03-05T01:08:29.060Z,89.02
2024-03-05T01:10:55.742Z,88.57
2024-03-05T01:13:22.586Z,88.66
2024-03-05T01:15:49.200Z,88.48
2024-03-05T01:18:15.769Z,88.34
2024-03-05T01:20:43.066Z,89.35
2024-03-05T01:23:13.137Z,88.67
2024-03-05T01:25:39.907Z,89.11
2024-03-05T01:28:08.684Z,90.28
2024-03-05T01:30:35.812Z,90.20
2024-03-05T01:33:06.667Z,90.00
2024-03-05T01:35:33.513Z,90.58
2024-03-05T01:38:00.006Z,89.65
2024-03-05T01:40:26.566Z,91.06
2024-03-05T01:42:53.060Z,90.95
2024-03-05T01:45:19.931Z,90.70
2024-03-05T01:47:49.143Z,91.31
2024-03-05T01:50:16.790Z,90.93
2024-03-05T01:52:44.986Z,90.44
2024-03-05T01:55:15.680Z,90.93
2024-03-05T01:57:45.019Z,90.93
2024-03-05T02:00:16.385Z,90.24
2024-03-05T02:02:45.979Z,90.26
2024-03-05T02:05:13.711Z,91.31
2024-03-05T02:07:41.462Z,91.02
2024-03-05T02:10:11.239Z,90.99
2024-03-05T02:12:38.026Z,91.05
2024-03-05T02:15:12.375Z,91.44
2024-03-05T02:17:40.488Z,91.39
2024-03-05T02:20:11.133Z,91.63
2024-03-05T02:22:40.779Z,90.76
2024-03-05T02:25:07.817Z,92.16
2024-03-05T02:27:36.598Z,92.15
2024-03-05T02:30:11.042Z,92.14
2024-03-05T02:32:42.725Z,91.75
2024-03-05T02:35:12.472Z,92.13
2024-03-05T02:37:40.135Z,92.31
2024-03-05T02:40:11.073Z,92.52
2024-03-05T02:42:38.262Z,93.01
2024-03-05T02:45:08.545Z,92.32
2024-03-05T02:47:43.391Z,92.35
2024-03-05T02:50:11.118Z,92.41
2024-03-05T02:52:39.992Z,92.00
2024-03-05T02:55:10.597Z,92.07
2024-03-05T02:57:42.284Z,91.73
2024-03-05T03:00:10.084Z,91.34
2024-03-05T03:02:36.781Z,92.19
2024-03-05T03:05:03.361Z,92.25
2024-03-05T03:07:29.870Z,92.14
2024-03-05T03:09:56.381Z,92.47
2024-03-05T03:12:23.308Z,93.19
2024-03-05T03:14:49.852Z,92.59
2024-03-05T03:17:16.561Z,92.29
2024-03-05T03:19:44.162Z,92.36
2024-03-05T03:22:10.717Z,92.56
2024-03-05T03:24:37.291Z,93.01
2024-03-05T03:27:03.915Z,93.21
2024-03-05T03:29:30.543Z,92.35
2024-03-05T03:31:57.417Z,92.50
2024-03-05T03:34:24.110Z,91.33
2024-03-05T03:36:50.634Z,90.85
2024-03-05T03:39:25.036Z,91.67
2024-03-05T03:41:54.481Z,92.94
2024-03-05T03:44:21.910Z,93.53
2024-03-05T03:46:48.937Z,93.23
2024-03-05T03:49:15.850Z,93.03
2024-03-05T03:51:44.208Z,92.92
2024-03-05T03:54:10.910Z,92.43
2024-03-05T03:56:37.704Z,92.56
2024-03-05T03:59:04.645Z,92.73
2024-03-05T04:01:32.688Z,92.11
2024-03-05T04:04:00.258Z,92.61
2024-03-05T04:06:26.720Z,92.63
2024-03-05T04:08:53.637Z,92.47
2024-03-05T04:11:20.190Z,93.32
2024-03-05T04:13:46.830Z,92.88
2024-03-05T04:16:13.671Z,92.76
2024-03-05T04:18:40.342Z,92.31
2024-03-05T04:21:06.921Z,93.17
2024-03-05T04:23:34.116Z,92.84
2024-03-05T04:26:08.377Z,91.58
2024-03-05T04:28:49.800Z,92.50
2024-03-05T04:31:21.284Z,93.03
2024-03-05T04:33:49.336Z,92.70
2024-03-05T04:36:16.910Z,93.07
2024-03-05T04:38:44.545Z,92.45
2024-03-05T04:41:16.946Z,92.09
2024-03-05T04:43:43.555Z,92.24
2024-03-05T04:46:12.335Z,92.00
2024-03-05T04:48:41.912Z,92.57
2024-03-05T04:51:09.739Z,93.31
2024-03-05T04:53:39.963Z,92.76
2024-03-05T04:56:07.819Z,92.90
2024-03-05T04:58:35.700Z,92.87
2024-03-05T05:01:02.231Z,92.60
2024-03-05T05:03:28.769Z,91.07
2024-03-05T05:05:58.382Z,91.95
2024-03-05T05:08:25.009Z,92.31
2024-03-05T05:10:51.736Z,93.61
2024-03-05T05:13:18.753Z,94.30
2024-03-05T05:15:47.441Z,93.54
2024-03-05T05:18:15.248Z,93.88
2024-03-05T05:20:42.379Z,93.72
2024-03-05T05:23:09.239Z,93.26
2024-03-05T05:25:35.783Z,93.87
2024-03-05T05:28:02.333Z,94.09
2024-03-05T05:30:28.852Z,94.83
2024-03-05T05:32:56.061Z,94.36
2024-03-05T05:35:22.810Z,94.06
2024-03-05T05:37:49.428Z,94.25
2024-03-05T05:40:20.941Z,93.56
2024-03-05T05:42:50.230Z,93.00
2024-03-05T05:45:17.008Z,92.34
2024-03-05T05:47:52.400Z,91.64
2024-03-05T05:50:19.988Z,92.29
2024-03-05T05:52:51.923Z,91.14
2024-03-05T05:55:21.472Z,91.90
2024-03-05T05:57:49.157Z,91.45
2024-03-05T06:00:46.918Z,91.26
2024-03-05T06:03:13.707Z,91.61
2024-03-05T06:05:43.625Z,91.58
2024-03-05T06:08:13.290Z,91.72
2024-03-05T06:10:40.348Z,91.40
2024-03-05T06:13:08.033Z,90.27
2024-03-05T06:15:35.303Z,90.83
2024-03-05T06:18:02.568Z,92.68
2024-03-05T06:20:29.323Z,92.21
2024-03-05T06:22:57.547Z,91.18
2024-03-05T06:25:24.218Z,90.89
2024-03-05T06:27:50.738Z,91.82
2024-03-05T06:30:19.085Z,90.84
2024-03-05T06:32:48.238Z,90.16
2024-03-05T06:35:14.745Z,90.51
2024-03-05T06:37:45.437Z,90.40
2024-03-05T06:40:17.616Z,91.43
2024-03-05T06:42:52.951Z,91.72
2024-03-05T06:45:28.292Z,91.99
2024-03-05T06:48:11.060Z,91.38
2024-03-05T06:50:43.476Z,91.44
2024-03-05T06:53:29.635Z,90.71
2024-03-05T06:56:14.629Z,91.56
2024-03-05T06:58:43.799Z,92.05
2024-03-05T07:01:10.298Z,92.07
2024-03-05T07:03:39.365Z,93.54
2024-03-05T07:06:10.876Z,92.58
2024-03-05T07:08:41.827Z,91.20
2024-03-05T07:11:10.937Z,90.84
2024-03-05T07:13:38.777Z,90.30
2024-03-05T07:16:08.589Z,90.68
2024-03-05T07:18:37.219Z,91.60
2024-03-05T07:21:04.910Z,91.94
2024-03-05T07:23:31.650Z,92.02
2024-03-05T07:25:58.469Z,92.16
2024-03-05T07:28:27.193Z,91.09
2024-03-05T07:30:54.509Z,91.23
2024-03-05T07:33:24.456Z,91.35
2024-03-05T07:35:50.983Z,91.43
2024-03-05T07:38:17.890Z,92.46
2024-03-05T07:40:46.604Z,91.93
2024-03-05T07:43:13.272Z,91.72
2024-03-05T07:45:40.127Z,91.73
2024-03-05T07:48:07.707Z,91.62
2024-03-05T07:50:34.404Z,91.53
2024-03-05T07:53:01.030Z,91.24
2024-03-05T07:55:32.097Z,90.83
2024-03-05T07:58:02.585Z,91.72
2024-03-05T08:00:29.262Z,92.55
2024-03-05T08:02:55.923Z,92.08
2024-03-05T08:05:23.549Z,91.73
2024-03-05T08:07:54.971Z,92.15
2024-03-05T08:10:23.138Z,92.04
2024-03-05T08:12:51.335Z,91.19
2024-03-05T08:15:18.604Z,90.55
2024-03-05T08:17:52.768Z,89.72
2024-03-05T08:20:20.687Z,90.20
2024-03-05T08:22:47.992Z,88.89
2024-03-05T08:25:18.738Z,89.46
2024-03-05T08:27:55.375Z,90.78
2024-03-05T08:30:23.803Z,90.25
2024-03-05T08:32:52.492Z,90.56
2024-03-05T08:35:20.585Z,89.36
2024-03-05T08:37:48.562Z,90.21
2024-03-05T08:40:17.182Z,90.38
2024-03-05T08:42:51.333Z,88.83
2024-03-05T08:45:21.460Z,89.53
2024-03-05T08:47:49.603Z,89.78
2024-03-05T08:50:16.203Z,88.92
2024-03-05T08:52:43.533Z,88.66
2024-03-05T08:55:11.631Z,88.85
2024-03-05T08:57:39.054Z,88.67
2024-03-05T09:00:16.232Z,87.75
2024-03-05T09:02:52.676Z,88.10
2024-03-05T09:05:19.266Z,88.01
2024-03-05T09:07:45.765Z,87.39
2024-03-05T09:10:12.378Z,87.45
2024-03-05T09:12:38.912Z,87.15
2024-03-05T09:15:07.166Z,88.25
2024-03-05T09:17:35.227Z,88.64
2024-03-05T09:20:14.885Z,88.58
2024-03-05T09:22:45.770Z,88.28
2024-03-05T09:25:13.906Z,88.22
2024-03-05T09:27:42.081Z,86.72
2024-03-05T09:30:09.660Z,87.89
2024-03-05T09:32:37.060Z,87.16
2024-03-05T09:35:10.032Z,86.55
2024-03-05T09:37:37.858Z,85.93
2024-03-05T09:40:07.732Z,86.18
2024-03-05T09:42:36.737Z,86.93
2024-03-05T09:45:06.771Z,87.08
2024-03-05T09:47:37.648Z,86.57
2024-03-05T09:50:07.026Z,87.24
2024-03-05T09:52:35.251Z,85.73
2024-03-05T09:55:02.453Z,85.35
2024-03-05T09:57:30.365Z,85.91
2024-03-05T09:59:57.354Z,85.90
2024-03-05T10:02:27.238Z,85.66
2024-03-05T10:05:00.395Z,85.36
2024-03-05T10:07:28.059Z,85.15
2024-03-05T10:10:14.017Z,85.98
2024-03-05T10:12:41.234Z,85.10
2024-03-05T10:15:20.028Z,84.55
2024-03-05T10:17:52.316Z,85.64
2024-03-05T10:20:30.103Z,85.95
2024-03-05T10:23:00.162Z,86.11
2024-03-05T10:25:30.868Z,84.74
2024-03-05T10:27:57.962Z,85.28
2024-03-05T10:30:28.782Z,84.98
2024-03-05T10:33:00.420Z,85.88
2024-03-05T10:35:28.070Z,84.67
2024-03-05T10:38:04.292Z,84.27
2024-03-05T10:40:33.452Z,84.34
2024-03-05T10:43:02.158Z,84.44
2024-03-05T10:45:29.596Z,85.32
2024-03-05T10:47:59.974Z,85.10
2024-03-05T10:50:28.106Z,85.75
2024-03-05T10:52:56.875Z,85.89
2024-03-05T10:55:24.703Z,86.60
2024-03-05T10:58:11.354Z,86.20
2024-03-05T11:00:42.106Z,85.05
2024-03-05T11:03:13.059Z,85.06
2024-03-05T11:05:48.711Z,85.74
2024-03-05T11:08:18.857Z,86.86
2024-03-05T11:10:51.244Z,85.14
2024-03-05T11:13:18.931Z,85.91
2024-03-05T11:15:46.056Z,85.31
2024-03-05T11:18:28.544Z,85.57
2024-03-05T11:20:55.430Z,85.23
2024-03-05T11:23:26.334Z,85.50
2024-03-05T11:25:53.574Z,86.30
2024-03-05T11:28:21.939Z,86.39
2024-03-05T11:30:48.563Z,85.69
2024-03-05T11:33:19.961Z,85.98
2024-03-05T11:35:47.327Z,85.86
2024-03-05T11:38:15.055Z,86.28
2024-03-05T11:40:43.641Z,86.56
2024-03-05T11:43:10.231Z,86.95
2024-03-05T11:45:54.922Z,85.77
2024-03-05T11:48:22.018Z,86.65
2024-03-05T11:50:49.361Z,86.02
2024-03-05T11:53:16.187Z,84.70
2024-03-05T11:55:43.354Z,85.82
2024-03-05T11:58:11.955Z,85.28
2024-03-05T12:00:38.638Z,86.26
2024-03-05T12:03:05.303Z,84.89
2024-03-05T12:05:31.757Z,85.17
2024-03-05T12:08:08.126Z,85.16
2024-03-05T12:10:37.201Z,85.79
2024-03-05T12:13:04.964Z,86.08
2024-03-05T12:15:36.290Z,84.09
2024-03-05T12:18:11.648Z,84.43
2024-03-05T12:20:42.390Z,84.62
2024-03-05T12:23:09.798Z,84.83
2024-03-05T12:25:36.640Z,83.52
2024-03-05T12:28:03.328Z,83.69
2024-03-05T12:30:39.033Z,83.86
2024-03-05T12:33:06.658Z,83.69
2024-03-05T12:35:33.282Z,83.26
2024-03-05T12:38:04.279Z,83.42
2024-03-05T12:40:32.813Z,83.03
2024-03-05T12:43:25.824Z,82.92
2024-03-05T12:45:59.622Z,82.94
2024-03-05T12:48:27.193Z,83.08
2024-03-05T12:50:54.858Z,81.78
2024-03-05T12:53:21.558Z,81.65
2024-03-05T12:55:48.191Z,81.69
2024-03-05T12:58:14.686Z,81.87
2024-03-05T13:00:41.223Z,81.27
2024-03-05T13:03:09.669Z,81.56
2024-03-05T13:05:40.306Z,81.76
2024-03-05T13:08:10.063Z,80.60
2024-03-05T13:10:36.783Z,79.65
2024-03-05T13:13:03.541Z,79.60
2024-03-05T13:15:30.034Z,81.67
2024-03-05T13:17:56.721Z,80.95
2024-03-05T13:20:25.374Z,80.99
2024-03-05T13:22:54.911Z,80.01
2024-03-05T13:25:25.393Z,79.28
2024-03-05T13:27:53.352Z,79.87
2024-03-05T13:30:23.865Z,80.09
2024-03-05T13:32:53.539Z,81.05
2024-03-05T13:35:20.291Z,80.28
2024-03-05T13:37:49.690Z,79.59
2024-03-05T13:40:20.172Z,79.11
2024-03-05T13:42:47.414Z,80.00
2024-03-05T13:45:16.905Z,80.37
2024-03-05T13:47:44.299Z,78.79
2024-03-05T13:50:13.434Z,79.09
2024-03-05T13:52:44.473Z,79.21
2024-03-05T13:55:12.690Z,79.98
2024-03-05T13:57:40.604Z,79.71
2024-03-05T14:00:08.824Z,80.04
2024-03-05T14:02:36.717Z,79.39
2024-03-05T14:05:04.338Z,80.75
2024-03-05T14:07:31.908Z,79.81
2024-03-05T14:09:58.869Z,80.63
2024-03-05T14:12:25.573Z,80.77
2024-03-05T14:14:52.118Z,80.97
2024-03-05T14:17:18.608Z,81.19
2024-03-05T14:19:45.254Z,81.19
2024-03-05T14:22:12.549Z,81.10
2024-03-05T14:24:39.506Z,82.41
2024-03-05T14:27:06.528Z,82.46
2024-03-05T14:29:33.095Z,81.46
2024-03-05T14:31:59.723Z,82.58
2024-03-05T14:34:28.400Z,80.97
2024-03-05T14:36:55.059Z,81.65
2024-03-05T14:39:22.212Z,81.48
2024-03-05T14:41:48.888Z,80.15
2024-03-05T14:44:15.532Z,79.94
2024-03-05T14:46:42.461Z,79.69
2024-03-05T14:49:09.110Z,80.16
2024-03-05T14:51:36.362Z,79.88
2024-03-05T14:54:03.070Z,79.54
2024-03-05T14:56:31.515Z,78.91
2024-03-05T14:58:58.325Z,79.53
2024-03-05T15:01:26.828Z,80.25
2024-03-05T15:03:53.510Z,78.14
2024-03-05T15:06:20.849Z,77.52
2024-03-05T15:08:47.490Z,77.97
2024-03-05T15:11:14.178Z,78.59
2024-03-05T15:13:40.769Z,79.71
2024-03-05T15:16:08.996Z,78.96
2024-03-05T15:18:36.502Z,78.81
2024-03-05T15:21:14.942Z,79.35
2024-03-05T15:23:42.276Z,78.93
2024-03-05T15:26:10.367Z,79.51
2024-03-05T15:28:38.100Z,79.33
2024-03-05T15:31:10.466Z,80.45
2024-03-05T15:33:40.938Z,81.13
2024-03-05T15:36:08.429Z,80.69
2024-03-05T15:38:35.922Z,80.09
2024-03-05T15:41:05.949Z,79.96
2024-03-05T15:43:33.369Z,80.12
2024-03-05T15:45:59.992Z,80.53
2024-03-05T15:48:26.548Z,80.03
2024-03-05T15:50:53.321Z,80.28
2024-03-05T15:53:24.128Z,80.44
2024-03-05T15:55:59.392Z,80.92
2024-03-05T15:58:44.313Z,82.38
2024-03-05T16:01:12.520Z,81.27
2024-03-05T16:03:56.799Z,81.66
2024-03-05T16:06:29.195Z,81.61
2024-03-05T16:08:55.801Z,81.49
2024-03-05T16:11:24.832Z,81.90
2024-03-05T16:13:52.254Z,81.17
2024-03-05T16:16:21.032Z,80.48
2024-03-05T16:18:47.933Z,81.49
2024-03-05T16:21:15.715Z,81.06
2024-03-05T16:23:42.317Z,80.73
2024-03-05T16:26:10.391Z,80.71
2024-03-05T16:28:39.232Z,81.45
2024-03-05T16:31:06.132Z,80.55
2024-03-05T16:33:33.816Z,81.63
2024-03-05T16:36:00.633Z,81.52
2024-03-05T16:38:27.327Z,81.96
2024-03-05T16:40:54.112Z,81.71
2024-03-05T16:43:20.857Z,81.89
2024-03-05T16:45:47.923Z,82.05
2024-03-05T16:48:14.580Z,81.40
2024-03-05T16:50:42.180Z,81.46
2024-03-05T16:53:10.391Z,81.87
2024-03-05T16:55:37.856Z,81.62
2024-03-05T16:58:10.764Z,83.22
2024-03-05T17:00:46.593Z,83.81
2024-03-05T17:03:15.133Z,84.78
2024-03-05T17:05:47.186Z,84.11
2024-03-05T17:08:21.139Z,85.39
2024-03-05T17:10:49.351Z,85.07
2024-03-05T17:13:20.567Z,85.00
2024-03-05T17:15:55.786Z,86.19
2024-03-05T17:18:23.870Z,86.06
2024-03-05T17:20:52.135Z,85.06
2024-03-05T17:23:25.651Z,85.19
2024-03-05T17:25:53.342Z,86.10
2024-03-05T17:28:20.360Z,85.18
2024-03-05T17:30:47.390Z,85.95
2024-03-05T17:33:15.736Z,87.60
2024-03-05T17:35:42.897Z,85.95
2024-03-05T17:38:11.196Z,86.31
2024-03-05T17:40:38.454Z,86.69
2024-03-05T17:43:05.547Z,86.85
2024-03-05T17:45:33.076Z,85.86
2024-03-05T17:48:06.073Z,86.91
2024-03-05T17:50:33.311Z,86.84
2024-03-05T17:52:59.940Z,85.56
2024-03-05T17:55:26.818Z,84.92
2024-03-05T17:57:53.476Z,84.28
2024-03-05T18:00:23.223Z,83.46
2024-03-05T18:02:51.902Z,85.54
2024-03-05T18:05:19.788Z,85.31
2024-03-05T18:07:47.428Z,85.19
2024-03-05T18:10:14.216Z,84.10
2024-03-05T18:12:41.177Z,84.50
2024-03-05T18:15:08.778Z,84.63
2024-03-05T18:17:40.328Z,85.44
2024-03-05T18:20:12.591Z,85.68
2024-03-05T18:22:40.822Z,84.70
2024-03-05T18:25:21.138Z,84.75
2024-03-05T18:27:49.318Z,85.80
2024-03-05T18:30:21.183Z,86.69
2024-03-05T18:32:48.434Z,85.98
2024-03-05T18:35:17.769Z,85.39
2024-03-05T18:37:45.451Z,86.90
2024-03-05T18:40:16.393Z,87.13
2024-03-05T18:42:45.260Z,87.40
2024-03-05T18:45:18.723Z,86.33
2024-03-05T18:47:59.195Z,85.55
2024-03-05T18:50:32.321Z,84.56
2024-03-05T18:53:00.131Z,85.95
2024-03-05T18:55:29.874Z,85.70
2024-03-05T18:57:56.864Z,87.40
2024-03-05T19:00:24.614Z,87.76
2024-03-05T19:02:51.978Z,87.61
2024-03-05T19:05:20.093Z,87.62
2024-03-05T19:07:47.737Z,88.36
2024-03-05T19:10:14.362Z,89.28
2024-03-05T19:12:41.345Z,89.40
2024-03-05T19:15:08.676Z,88.89
2024-03-05T19:17:35.861Z,87.91
2024-03-05T19:20:02.934Z,87.89
2024-03-05T19:22:30.303Z,88.43
2024-03-05T19:24:59.729Z,88.62
2024-03-05T19:27:26.543Z,89.17
2024-03-05T19:29:56.348Z,88.23
2024-03-05T19:32:23.017Z,88.49
2024-03-05T19:34:49.587Z,87.78
2024-03-05T19:37:17.098Z,88.86
2024-03-05T19:39:43.649Z,89.47
2024-03-05T19:42:11.515Z,89.57
2024-03-05T19:44:38.618Z,89.93
2024-03-05T19:47:05.309Z,91.09
2024-03-05T19:49:32.025Z,91.54
2024-03-05T19:51:59.688Z,89.59
2024-03-05T19:54:29.192Z,89.17
2024-03-05T19:56:57.091Z,88.62
2024-03-05T19:59:24.069Z,88.74
2024-03-05T20:01:50.742Z,88.59
2024-03-05T20:04:17.694Z,89.11
2024-03-05T20:06:44.779Z,89.59
2024-03-05T20:09:14.445Z,90.17
2024-03-05T20:11:41.577Z,90.36
2024-03-05T20:14:09.935Z,91.38
2024-03-05T20:16:36.891Z,91.69
2024-03-05T20:19:03.570Z,92.52
2024-03-05T20:21:30.191Z,91.50
2024-03-05T20:23:57.552Z,91.35
2024-03-05T20:26:24.126Z,90.43
2024-03-05T20:28:53.755Z,91.94
2024-03-05T20:31:22.847Z,91.95
2024-03-05T20:33:49.965Z,91.96
2024-03-05T20:36:19.549Z,92.68
2024-03-05T20:38:46.719Z,91.69
2024-03-05T20:41:14.739Z,92.45
2024-03-05T20:43:41.531Z,92.49
2024-03-05T20:46:10.997Z,92.34
2024-03-05T20:48:38.138Z,92.58
2024-03-05T20:51:05.153Z,92.36
2024-03-05T20:53:31.789Z,92.51
2024-03-05T20:55:58.429Z,91.54
2024-03-05T20:58:24.938Z,91.77
2024-03-05T21:00:51.641Z,92.50
2024-03-05T21:03:22.653Z,92.43
2024-03-05T21:05:49.342Z,92.13
2024-03-05T21:08:16.257Z,92.32
2024-03-05T21:10:44.854Z,92.72
2024-03-05T21:13:11.470Z,92.75
2024-03-05T21:15:38.347Z,92.73
2024-03-05T21:18:09.719Z,92.97
2024-03-05T21:20:37.482Z,93.08
2024-03-05T21:23:05.528Z,92.63
2024-03-05T21:25:39.977Z,92.67
2024-03-05T21:28:16.419Z,92.23
2024-03-05T21:30:43.568Z,91.61
2024-03-05T21:33:10.200Z,91.08
2024-03-05T21:35:36.782Z,91.27
2024-03-05T21:38:03.340Z,92.50
2024-03-05T21:40:29.898Z,94.00
2024-03-05T21:42:56.464Z,93.80
2024-03-05T21:45:23.015Z,94.69
2024-03-05T21:47:50.104Z,93.05
2024-03-05T21:50:17.249Z,93.37
2024-03-05T21:52:47.179Z,92.73
2024-03-05T21:55:14.817Z,92.69
2024-03-05T21:57:41.517Z,92.26
2024-03-05T22:00:15.654Z,92.37
2024-03-05T22:02:42.987Z,92.50
2024-03-05T22:05:10.691Z,92.24
2024-03-05T22:07:38.140Z,93.39
2024-03-05T22:10:07.398Z,93.35
2024-03-05T22:12:35.140Z,93.12
2024-03-05T22:15:01.711Z,92.85
2024-03-05T22:17:28.192Z,92.70
2024-03-05T22:19:54.721Z,93.10
2024-03-05T22:22:23.091Z,94.59
2024-03-05T22:24:49.908Z,94.51
2024-03-05T22:27:16.554Z,94.10
2024-03-05T22:29:43.104Z,93.11
2024-03-05T22:32:09.779Z,94.32
2024-03-05T22:34:37.377Z,93.97
2024-03-05T22:37:04.374Z,94.31
2024-03-05T22:39:30.846Z,92.93
2024-03-05T22:41:57.364Z,94.19
2024-03-05T22:44:24.802Z,94.48
2024-03-05T22:46:51.514Z,93.98
2024-03-05T22:49:18.636Z,93.47
2024-03-05T22:51:45.174Z,93.30
2024-03-05T22:54:11.620Z,93.31
2024-03-05T22:56:38.517Z,93.34
2024-03-05T22:59:05.154Z,92.66
2024-03-05T23:01:32.604Z,92.95
2024-03-05T23:03:59.148Z,93.83
2024-03-05T23:06:26.591Z,94.01
2024-03-05T23:08:53.242Z,94.09
2024-03-05T23:11:19.871Z,92.73
2024-03-05T23:13:46.605Z,92.88
2024-03-05T23:16:13.254Z,92.80
2024-03-05T23:18:39.806Z,92.98
2024-03-05T23:21:06.671Z,93.33
2024-03-05T23:23:33.500Z,93.17
2024-03-05T23:25:59.992Z,93.45
2024-03-05T23:28:26.443Z,93.28
2024-03-05T23:30:52.924Z,93.85
2024-03-05T23:33:19.548Z,93.98
2024-03-05T23:35:46.328Z,93.40
2024-03-05T23:38:13.114Z,93.57
2024-03-05T23:40:40.282Z,94.53
2024-03-05T23:43:06.843Z,95.25
2024-03-05T23:45:33.653Z,93.80
2024-03-05T23:48:00.251Z,92.58
2024-03-05T23:50:26.777Z,92.25
2024-03-05T23:52:53.326Z,93.64
2024-03-05T23:55:20.134Z,95.00
2024-03-05T23:57:46.783Z,93.81
